createdAt,value
2023-05-25T00:08:40.425Z,63.81
2023-05-25T00:18:43.232Z,66.47
2023-05-25T00:28:45.427Z,65.92
2023-05-25T00:38:47.845Z,66.12
2023-05-25T00:48:52.569Z,66.00
2023-05-25T00:58:56.979Z,66.65
2023-05-25T01:09:02.036Z,66.13
2023-05-25T01:19:04.721Z,67.07
2023-05-25T01:29:08.720Z,66.49
2023-05-25T01:39:11.241Z,68.30
2023-05-25T01:49:19.864Z,67.86
2023-05-25T01:59:22.116Z,67.67
2023-05-25T02:09:27.060Z,67.86
2023-05-25T02:19:29.586Z,68.86
2023-05-25T02:29:32.200Z,67.68
2023-05-25T02:39:36.043Z,67.76
2023-05-25T02:49:38.656Z,68.36
2023-05-25T02:59:42.030Z,68.73
2023-05-25T03:09:44.273Z,70.06
2023-05-25T03:19:46.932Z,68.96
2023-05-25T03:29:50.649Z,68.90
2023-05-25T03:39:52.945Z,69.39
2023-05-25T03:49:55.424Z,69.21
2023-05-25T03:59:57.708Z,68.74
2023-05-25T04:10:00.160Z,68.43
2023-05-25T04:20:03.753Z,68.92
2023-05-25T04:30:06.754Z,67.46
2023-05-25T04:40:38.048Z,67.02
2023-05-25T04:50:40.421Z,70.17
2023-05-25T05:00:44.295Z,69.16
2023-05-25T05:10:46.776Z,66.76
2023-05-25T05:20:49.156Z,66.46
2023-05-25T05:30:53.650Z,65.52
2023-05-25T05:40:56.126Z,66.08
2023-05-25T05:50:58.849Z,65.17
2023-05-25T06:01:02.189Z,64.78
2023-05-25T06:11:04.457Z,66.55
2023-05-25T06:21:06.708Z,64.91
2023-05-25T06:31:08.924Z,64.38
2023-05-25T06:41:14.962Z,63.61
2023-05-25T06:51:18.808Z,61.05
2023-05-25T07:01:21.267Z,62.81
2023-05-25T07:11:23.600Z,59.78
2023-05-25T07:21:25.770Z,57.70
2023-05-25T07:31:27.970Z,60.80
2023-05-25T07:41:30.208Z,55.81
2023-05-25T07:51:32.862Z,59.09
2023-05-25T08:01:36.062Z,56.03
2023-05-25T08:11:39.965Z,54.38
2023-05-25T08:21:42.355Z,55.85
2023-05-25T08:31:49.813Z,52.69
2023-05-25T08:41:52.170Z,53.17
2023-05-25T08:51:55.503Z,55.65
2023-05-25T09:02:22.860Z,53.40
2023-05-25T09:12:25.711Z,55.08
2023-05-25T09:22:28.252Z,53.64
2023-05-25T09:32:31.129Z,53.78
2023-05-25T09:42:37.409Z,53.21
2023-05-25T09:52:39.553Z,53.01
2023-05-25T10:02:41.711Z,54.35
2023-05-25T10:12:44.783Z,52.14
2023-05-25T10:23:05.731Z,53.56
2023-05-25T10:33:08.112Z,52.06
2023-05-25T10:43:10.507Z,49.84
2023-05-25T10:53:13.504Z,52.18
2023-05-25T11:03:15.714Z,49.48
2023-05-25T11:13:21.462Z,48.91
2023-05-25T11:23:24.053Z,48.48
2023-05-25T11:33:26.220Z,50.13
2023-05-25T11:43:29.600Z,51.39
2023-05-25T11:53:32.566Z,51.32
2023-05-25T12:03:36.564Z,50.34
2023-05-25T12:13:41.111Z,49.20
2023-05-25T12:23:43.434Z,49.01
2023-05-25T12:33:45.958Z,49.16
2023-05-25T12:43:49.340Z,47.10
2023-05-25T12:53:51.920Z,46.78
2023-05-25T13:03:54.186Z,48.91
2023-05-25T13:13:56.818Z,49.57
2023-05-25T13:23:59.017Z,48.03
2023-05-25T13:34:01.176Z,48.30
2023-05-25T13:44:03.714Z,43.81
2023-05-25T13:54:06.126Z,44.03
2023-05-25T14:04:10.036Z,41.63
2023-05-25T14:14:27.129Z,44.05
2023-05-25T14:24:33.335Z,42.27
2023-05-25T14:34:35.716Z,40.59
2023-05-25T14:44:37.941Z,43.25
2023-05-25T14:54:44.783Z,42.52
2023-05-25T15:04:47.723Z,43.89
2023-05-25T15:14:49.968Z,44.14
2023-05-25T15:24:52.086Z,44.37
2023-05-25T15:34:54.210Z,43.21
2023-05-25T15:44:56.616Z,44.36
2023-05-25T15:54:58.808Z,42.48
2023-05-25T16:05:00.985Z,41.36
2023-05-25T16:15:03.146Z,42.73
2023-05-25T16:25:05.694Z,44.57
2023-05-25T16:35:08.185Z,40.81
2023-05-25T16:45:10.739Z,42.34
2023-05-25T16:55:14.468Z,45.00
2023-05-25T17:05:16.712Z,43.94
2023-05-25T17:15:18.997Z,43.71
2023-05-25T17:25:21.580Z,43.43
2023-05-25T17:35:23.762Z,44.68
2023-05-25T17:45:26.109Z,44.48
2023-05-25T17:55:28.467Z,43.94
2023-05-25T18:05:30.646Z,43.16
2023-05-25T18:15:32.832Z,45.53
2023-05-25T18:25:34.951Z,46.10
2023-05-25T18:35:37.908Z,46.87
2023-05-25T18:45:40.056Z,48.20
2023-05-25T18:55:42.415Z,47.05
2023-05-25T19:05:44.781Z,49.40
2023-05-25T19:15:47.275Z,48.42
2023-05-25T19:25:49.579Z,50.69
2023-05-25T19:35:51.796Z,51.54
2023-05-25T19:45:55.274Z,53.43
2023-05-25T19:55:57.579Z,53.19
2023-05-25T20:05:59.681Z,54.37
2023-05-25T20:16:01.816Z,54.97
2023-05-25T20:26:04.005Z,55.33
2023-05-25T20:36:06.226Z,56.42
2023-05-25T20:46:08.805Z,55.53
2023-05-25T20:56:11.064Z,57.10
2023-05-25T21:06:13.210Z,58.99
2023-05-25T21:16:15.398Z,60.05
2023-05-25T21:26:17.592Z,53.23
2023-05-25T21:36:20.324Z,54.41
2023-05-25T21:46:22.426Z,54.37
2023-05-25T21:56:24.541Z,55.46
2023-05-25T22:06:26.645Z,56.87
2023-05-25T22:16:28.933Z,55.67
2023-05-25T22:26:31.076Z,56.73
2023-05-25T22:36:33.204Z,57.23
2023-05-25T22:46:35.829Z,55.63
2023-05-25T22:56:37.946Z,57.48
2023-05-25T23:06:40.043Z,57.30
2023-05-25T23:16:42.212Z,55.68
2023-05-25T23:26:44.329Z,59.16
2023-05-25T23:36:46.441Z,58.33
2023-05-25T23:46:48.524Z,57.21
2023-05-25T23:56:51.538Z,59.76
